Informes de METARS cercanos

 

LEAL - Alicante/El Alte, Spain
Distance from station: SSE 60km
Actualización: 29/09/2022 19:00
Despejado
Despejado
 Viento del SO
Viento: SO 11 km/h
Temperatura: 26°C
Rocío: 9°C
Humedad: 34%
Barómetro: 1003 hPa
Resumen: Despejado
Visibility: greater than 10 km
2022/09/29 17:00 LEAL 291700Z 22006KT 190V260 CAVOK 26/09 Q1003 NOSIG
LEVC - Valencia (civ/Mi, Spain
Distance from station: NNE 84km
Actualización: 29/09/2022 19:00
Poco nuboso
Poco nuboso
 Viento del O
Viento: O 30 km/h
Temperatura: 24°C
Rocío: 5°C
Humedad: 29%
Barómetro: 1003 hPa
Clouds: Poco nuboso
Visibility: 10 km
Cloud details: Poco nuboso 762 m
2022/09/29 17:00 LEVC 291700Z 28016KT 9999 FEW025 24/05 Q1003 NOSIG
 
LEAB - Albacete (civ/Mi, Spain
Distance from station: O 95km
Actualización: 29/09/2022 19:00
Poco nuboso
Poco nuboso
 Viento del NNO
Viento: NNO 17 km/h
Temperatura: 14°C
Rocío: 9°C
Humedad: 72%
Barómetro: 1008 hPa
Clouds: Poco nuboso
Visibility: 10 km
Cloud details: Poco nuboso 1494 m
2022/09/29 17:00 LEAB 291700Z 33009KT 9999 FEW049 14/09 Q1008 NOSIG
LERI - Alcantarilla(Sp-, Spain
Distance from station: SSO 100km
Actualización: 29/09/2022 19:00
Despejado
Despejado
 Viento del varies
Viento: varies 2 km/h
Temperatura: 26°C
Rocío: 6°C
Humedad: 28%
Barómetro: 1004 hPa
Resumen: Despejado
Visibility: greater than 10 km
2022/09/29 17:00 LERI 291700Z VRB01KT CAVOK 26/06 Q1004 NOSIG
 
LELC - San Javier(Mil/C, Spain
Distance from station: S 113km
Actualización: 29/09/2022 19:00
Despejado
Despejado
 Viento del SSO
Viento: SSO 9 km/h
Temperatura: 26°C
Rocío: 15°C
Humedad: 51%
Barómetro: 1004 hPa
Resumen: Despejado
Visibility: greater than 10 km
2022/09/29 17:00 LELC 291700Z 20005KT 160V240 CAVOK 26/15 Q1004 NOSIG
LEIB - Ibiza/Es Codola, Spain
Distance from station: E 186km
Actualización: 29/09/2022 19:00
Poco nuboso
Poco nuboso
 Viento del SO
Viento: SO 20 km/h
Temperatura: 23°C
Rocío: 12°C
Humedad: 50%
Barómetro: 1003 hPa
Clouds: Poco nuboso
Visibility: 10 km
Cloud details: Poco nuboso 1494 m
2022/09/29 17:00 LEIB 291700Z 23011KT 9999 FEW049 23/12 Q1003 NOSIG
 
LEAM - Almeria Airport, Spain
Distance from station: SSO 256km
Actualización: 29/09/2022 19:00
Despejado
Despejado
 Viento del OSO
Viento: OSO 31 km/h
Temperatura: 21°C
Rocío: 14°C
Humedad: 64%
Barómetro: 1004 hPa
Resumen: Despejado
Visibility: greater than 10 km
2022/09/29 17:00 LEAM 291700Z 24017KT 210V270 CAVOK 21/14 Q1004
LEMD - Madrid/Barajas, Spain
Distance from station: NO 305km
Actualización: 29/09/2022 19:16

 Viento del O
Viento: O 9 km/h, Racha: 28 km/h
Visibility: 10 km
2022/09/29 17:16 LEMD 291716Z 26005G15KT 9999 4000 RA FEW025 SCT040 BKN060 15/09 Q1008 NOSIG
 
LEPA - Palma De Mallorc, Spain
Distance from station: ENE 313km
Actualización: 29/09/2022 19:00
Parcialmente nuboso
Parcialmente nuboso
 Viento del NNO
Viento: NNO 15 km/h
Temperatura: 24°C
Rocío: 13°C
Humedad: 50%
Barómetro: 1003 hPa
Clouds: Parcialmente nuboso
Visibility: 10 km
Cloud details: Poco nuboso 762 m
Parcialmente nuboso 1585 m
2022/09/29 17:00 LEPA 291700Z 34008KT 270V360 9999 FEW025 SCT052 24/13 Q1003 NOSIG